Terminal Aerodrome Forecast
Issued by NWS

Home | Current Version | Previous Version | Graphics & Text | Print | Product List | Glossary On
Versions: 1 2 3 4 5 6 7 8 9 10 11 12 13 14 15 16 17 18 19 20 21 22 23 24 25 26 27 28 29 30 31 32 33 34 35
000
FTUS43 KLOT 082300 CCA
TAFMDW
TAF COR
KMDW 082352Z 0900/0924 29013G20KT P6SM BKN060 BKN090
     FM090100 29007KT P6SM FEW060
     FM091000 04006KT P6SM FEW010
     FM091400 36008KT P6SM SCT025
     FM092000 04009KT P6SM FEW040=

USA.gov is the U.S. government's official web portal to all federal, state and local government web resources and services.